sensor_id;sensor_type;location;lat;lon;timestamp;pressure;altitude;pressure_sealevel;temperature;humidity
27980;BME280;15315;50.836;4.430;2023-02-18T00:08:21;101908.63;;;13.70;100.00
27980;BME280;15315;50.836;4.430;2023-02-18T00:18:22;101907.84;;;13.40;100.00
27980;BME280;15315;50.836;4.430;2023-02-18T00:28:22;101874.59;;;13.79;100.00
27980;BME280;15315;50.836;4.430;2023-02-18T00:38:23;101878.16;;;13.93;100.00
27980;BME280;15315;50.836;4.430;2023-02-18T00:48:23;101874.44;;;13.11;100.00
27980;BME280;15315;50.836;4.430;2023-02-18T00:58:23;101854.22;;;13.31;100.00
27980;BME280;15315;50.836;4.430;2023-02-18T01:08:25;101838.47;;;13.37;100.00
27980;BME280;15315;50.836;4.430;2023-02-18T01:18:26;101838.47;;;13.23;100.00
27980;BME280;15315;50.836;4.430;2023-02-18T01:28:27;101824.50;;;13.43;100.00
27980;BME280;15315;50.836;4.430;2023-02-18T01:38:27;101826.19;;;13.18;100.00
27980;BME280;15315;50.836;4.430;2023-02-18T01:59:10;101815.53;;;13.29;100.00
27980;BME280;15315;50.836;4.430;2023-02-18T02:09:13;101801.81;;;13.18;100.00
27980;BME280;15315;50.836;4.430;2023-02-18T02:50:36;101767.13;;;12.96;100.00
27980;BME280;15315;50.836;4.430;2023-02-18T03:00:55;101764.88;;;13.17;100.00
27980;BME280;15315;50.836;4.430;2023-02-18T03:11:04;101754.31;;;13.26;100.00
27980;BME280;15315;50.836;4.430;2023-02-18T03:21:24;101747.78;;;12.74;100.00
27980;BME280;15315;50.836;4.430;2023-02-18T03:31:27;101738.63;;;12.62;100.00
27980;BME280;15315;50.836;4.430;2023-02-18T03:41:28;101719.50;;;12.21;100.00
27980;BME280;15315;50.836;4.430;2023-02-18T03:51:29;101716.63;;;12.24;100.00
27980;BME280;15315;50.836;4.430;2023-02-18T04:01:30;101714.22;;;11.90;100.00
27980;BME280;15315;50.836;4.430;2023-02-18T04:11:30;101716.75;;;12.07;100.00
27980;BME280;15315;50.836;4.430;2023-02-18T04:21:31;101683.44;;;11.93;100.00
27980;BME280;15315;50.836;4.430;2023-02-18T04:31:32;101666.44;;;11.91;100.00
27980;BME280;15315;50.836;4.430;2023-02-18T04:41:32;101679.25;;;12.17;100.00
27980;BME280;15315;50.836;4.430;2023-02-18T04:51:32;101661.56;;;11.67;100.00
27980;BME280;15315;50.836;4.430;2023-02-18T05:01:33;101672.78;;;12.19;100.00
27980;BME280;15315;50.836;4.430;2023-02-18T05:11:33;101691.63;;;12.49;100.00
27980;BME280;15315;50.836;4.430;2023-02-18T05:21:34;101685.06;;;12.81;100.00
27980;BME280;15315;50.836;4.430;2023-02-18T05:31:34;101677.88;;;12.24;100.00
27980;BME280;15315;50.836;4.430;2023-02-18T05:41:34;101652.09;;;12.18;100.00
27980;BME280;15315;50.836;4.430;2023-02-18T05:51:35;101646.06;;;11.85;100.00
27980;BME280;15315;50.836;4.430;2023-02-18T06:01:35;101644.13;;;11.87;100.00
27980;BME280;15315;50.836;4.430;2023-02-18T06:11:36;101643.47;;;11.98;100.00
27980;BME280;15315;50.836;4.430;2023-02-18T06:21:37;101636.13;;;11.10;100.00
27980;BME280;15315;50.836;4.430;2023-02-18T06:31:37;101621.09;;;11.36;100.00
27980;BME280;15315;50.836;4.430;2023-02-18T06:41:37;101634.13;;;12.03;100.00
27980;BME280;15315;50.836;4.430;2023-02-18T06:51:39;101645.25;;;11.24;100.00
27980;BME280;15315;50.836;4.430;2023-02-18T07:01:40;101635.38;;;11.54;100.00
27980;BME280;15315;50.836;4.430;2023-02-18T07:11:40;101620.75;;;11.42;100.00
27980;BME280;15315;50.836;4.430;2023-02-18T07:21:41;101619.81;;;11.87;100.00
27980;BME280;15315;50.836;4.430;2023-02-18T07:31:41;101649.97;;;11.65;100.00
27980;BME280;15315;50.836;4.430;2023-02-18T07:41:42;101636.84;;;11.89;100.00
27980;BME280;15315;50.836;4.430;2023-02-18T07:51:42;101637.97;;;11.85;100.00
27980;BME280;15315;50.836;4.430;2023-02-18T08:01:43;101649.16;;;11.49;100.00
27980;BME280;15315;50.836;4.430;2023-02-18T08:11:43;101647.88;;;11.70;100.00
27980;BME280;15315;50.836;4.430;2023-02-18T08:21:45;101661.31;;;11.41;100.00
27980;BME280;15315;50.836;4.430;2023-02-18T08:31:45;101666.13;;;12.81;100.00
27980;BME280;15315;50.836;4.430;2023-02-18T08:41:46;101674.91;;;11.85;100.00
27980;BME280;15315;50.836;4.430;2023-02-18T08:51:46;101681.69;;;12.78;100.00
27980;BME280;15315;50.836;4.430;2023-02-18T09:01:47;101666.81;;;12.43;100.00
27980;BME280;15315;50.836;4.430;2023-02-18T09:11:48;101636.59;;;13.05;100.00
27980;BME280;15315;50.836;4.430;2023-02-18T09:21:48;101652.66;;;12.94;100.00
27980;BME280;15315;50.836;4.430;2023-02-18T09:31:49;101655.97;;;12.99;100.00
27980;BME280;15315;50.836;4.430;2023-02-18T09:42:13;101656.47;;;13.18;100.00
27980;BME280;15315;50.836;4.430;2023-02-18T09:52:20;101675.34;;;13.32;100.00
27980;BME280;15315;50.836;4.430;2023-02-18T10:02:23;101662.53;;;13.75;100.00
27980;BME280;15315;50.836;4.430;2023-02-18T10:12:25;101668.94;;;13.74;100.00
27980;BME280;15315;50.836;4.430;2023-02-18T10:22:26;101680.50;;;14.28;100.00
27980;BME280;15315;50.836;4.430;2023-02-18T10:32:36;101671.06;;;14.21;100.00
27980;BME280;15315;50.836;4.430;2023-02-18T10:43:10;101689.91;;;13.58;100.00
27980;BME280;15315;50.836;4.430;2023-02-18T10:53:37;101683.75;;;13.15;100.00
27980;BME280;15315;50.836;4.430;2023-02-18T11:03:44;101671.88;;;13.84;100.00
27980;BME280;15315;50.836;4.430;2023-02-18T11:13:52;101683.59;;;13.97;100.00
27980;BME280;15315;50.836;4.430;2023-02-18T11:23:54;101679.19;;;13.96;100.00
27980;BME280;15315;50.836;4.430;2023-02-18T11:33:59;101678.31;;;14.20;100.00
27980;BME280;15315;50.836;4.430;2023-02-18T11:44:05;101661.59;;;14.77;100.00
27980;BME280;15315;50.836;4.430;2023-02-18T12:04:36;101669.66;;;14.53;100.00
27980;BME280;15315;50.836;4.430;2023-02-18T12:14:39;101662.16;;;13.54;100.00
27980;BME280;15315;50.836;4.430;2023-02-18T12:24:49;101666.00;;;14.54;100.00
27980;BME280;15315;50.836;4.430;2023-02-18T12:56:17;101671.72;;;14.75;100.00
27980;BME280;15315;50.836;4.430;2023-02-18T13:06:41;101679.94;;;13.58;100.00
27980;BME280;15315;50.836;4.430;2023-02-18T13:16:53;101676.50;;;13.42;100.00
27980;BME280;15315;50.836;4.430;2023-02-18T13:27:23;101682.97;;;13.54;100.00
27980;BME280;15315;50.836;4.430;2023-02-18T13:37:30;101673.75;;;13.56;100.00
27980;BME280;15315;50.836;4.430;2023-02-18T13:47:36;101675.00;;;13.51;100.00
27980;BME280;15315;50.836;4.430;2023-02-18T13:57:38;101673.56;;;13.45;100.00
27980;BME280;15315;50.836;4.430;2023-02-18T14:08:04;101669.22;;;12.75;100.00
27980;BME280;15315;50.836;4.430;2023-02-18T14:18:22;101668.69;;;12.97;100.00
27980;BME280;15315;50.836;4.430;2023-02-18T14:39:00;101658.44;;;13.02;100.00
27980;BME280;15315;50.836;4.430;2023-02-18T14:49:17;101668.19;;;13.05;100.00
27980;BME280;15315;50.836;4.430;2023-02-18T14:59:28;101644.31;;;13.50;100.00
27980;BME280;15315;50.836;4.430;2023-02-18T15:09:29;101657.06;;;12.40;100.00
27980;BME280;15315;50.836;4.430;2023-02-18T15:19:37;101640.50;;;13.54;100.00
27980;BME280;15315;50.836;4.430;2023-02-18T15:29:39;101634.06;;;14.07;100.00
27980;BME280;15315;50.836;4.430;2023-02-18T15:39:41;101632.22;;;14.08;100.00
27980;BME280;15315;50.836;4.430;2023-02-18T15:49:46;101628.06;;;14.40;100.00
27980;BME280;15315;50.836;4.430;2023-02-18T15:59:59;101623.03;;;13.58;100.00
27980;BME280;15315;50.836;4.430;2023-02-18T16:10:20;101626.91;;;14.57;100.00
27980;BME280;15315;50.836;4.430;2023-02-18T16:20:24;101626.31;;;13.64;100.00
27980;BME280;15315;50.836;4.430;2023-02-18T16:30:30;101631.47;;;13.93;100.00
27980;BME280;15315;50.836;4.430;2023-02-18T16:40:32;101629.38;;;13.18;100.00
27980;BME280;15315;50.836;4.430;2023-02-18T16:50:33;101629.75;;;13.53;100.00
27980;BME280;15315;50.836;4.430;2023-02-18T17:00:33;101622.09;;;13.45;100.00
27980;BME280;15315;50.836;4.430;2023-02-18T17:10:34;101613.09;;;13.84;100.00
27980;BME280;15315;50.836;4.430;2023-02-18T17:20:34;101622.53;;;13.79;100.00
27980;BME280;15315;50.836;4.430;2023-02-18T17:30:37;101626.66;;;13.72;100.00
27980;BME280;15315;50.836;4.430;2023-02-18T17:40:38;101613.66;;;14.14;100.00
27980;BME280;15315;50.836;4.430;2023-02-18T17:50:38;101617.25;;;14.28;100.00
27980;BME280;15315;50.836;4.430;2023-02-18T18:00:51;101609.88;;;14.17;100.00
27980;BME280;15315;50.836;4.430;2023-02-18T18:10:54;101615.06;;;14.07;100.00
27980;BME280;15315;50.836;4.430;2023-02-18T18:20:59;101625.53;;;13.62;100.00
27980;BME280;15315;50.836;4.430;2023-02-18T18:31:00;101623.25;;;13.68;100.00
27980;BME280;15315;50.836;4.430;2023-02-18T18:41:01;101626.25;;;13.78;100.00
27980;BME280;15315;50.836;4.430;2023-02-18T18:51:02;101614.28;;;13.41;100.00
27980;BME280;15315;50.836;4.430;2023-02-18T19:01:04;101607.81;;;14.08;100.00
27980;BME280;15315;50.836;4.430;2023-02-18T19:11:06;101603.97;;;13.33;100.00
27980;BME280;15315;50.836;4.430;2023-02-18T19:21:06;101607.91;;;13.42;100.00
27980;BME280;15315;50.836;4.430;2023-02-18T19:31:07;101622.84;;;13.35;100.00
27980;BME280;15315;50.836;4.430;2023-02-18T19:41:10;101590.25;;;13.10;100.00
27980;BME280;15315;50.836;4.430;2023-02-18T19:51:13;101572.41;;;13.20;100.00
27980;BME280;15315;50.836;4.430;2023-02-18T20:01:15;101570.25;;;12.85;100.00
27980;BME280;15315;50.836;4.430;2023-02-18T20:11:16;101559.22;;;12.88;100.00
27980;BME280;15315;50.836;4.430;2023-02-18T20:21:16;101558.41;;;13.40;100.00
27980;BME280;15315;50.836;4.430;2023-02-18T20:31:17;101561.13;;;13.40;100.00
27980;BME280;15315;50.836;4.430;2023-02-18T20:41:21;101537.25;;;12.93;100.00
27980;BME280;15315;50.836;4.430;2023-02-18T20:51:21;101533.91;;;13.02;100.00
27980;BME280;15315;50.836;4.430;2023-02-18T21:01:24;101528.47;;;13.29;100.00
27980;BME280;15315;50.836;4.430;2023-02-18T21:11:25;101525.16;;;12.98;100.00
27980;BME280;15315;50.836;4.430;2023-02-18T21:21:26;101532.41;;;13.50;100.00
27980;BME280;15315;50.836;4.430;2023-02-18T21:31:38;101552.94;;;13.27;100.00
27980;BME280;15315;50.836;4.430;2023-02-18T21:41:39;101547.50;;;13.54;100.00
27980;BME280;15315;50.836;4.430;2023-02-18T22:01:56;101493.72;;;14.11;100.00
27980;BME280;15315;50.836;4.430;2023-02-18T22:11:59;101512.38;;;13.40;100.00
27980;BME280;15315;50.836;4.430;2023-02-18T22:21:59;101527.91;;;13.24;100.00
27980;BME280;15315;50.836;4.430;2023-02-18T22:32:01;101534.56;;;13.45;100.00
27980;BME280;15315;50.836;4.430;2023-02-18T22:42:02;101537.22;;;13.97;100.00
27980;BME280;15315;50.836;4.430;2023-02-18T22:52:03;101539.88;;;13.07;100.00
27980;BME280;15315;50.836;4.430;2023-02-18T23:02:03;101537.44;;;13.17;100.00
27980;BME280;15315;50.836;4.430;2023-02-18T23:12:04;101538.78;;;13.36;100.00
27980;BME280;15315;50.836;4.430;2023-02-18T23:22:04;101528.09;;;12.81;100.00
27980;BME280;15315;50.836;4.430;2023-02-18T23:32:05;101530.38;;;13.02;100.00
27980;BME280;15315;50.836;4.430;2023-02-18T23:42:07;101524.41;;;12.96;100.00
27980;BME280;15315;50.836;4.430;2023-02-18T23:52:07;101538.41;;;12.89;100.00
